createdAt,value
2017-03-17T00:00:21.048Z,12.62
2017-03-17T00:01:01.607Z,12.67
2017-03-17T00:01:42.125Z,12.7
2017-03-17T00:02:22.661Z,12.72
2017-03-17T00:03:03.188Z,12.64
2017-03-17T00:03:43.704Z,12.62
2017-03-17T00:04:24.244Z,12.68
2017-03-17T00:05:04.772Z,12.72
2017-03-17T00:05:45.271Z,12.67
2017-03-17T00:06:25.773Z,12.65
2017-03-17T00:07:06.272Z,12.67
2017-03-17T00:07:46.801Z,12.62
2017-03-17T00:08:27.295Z,12.64
2017-03-17T00:09:07.780Z,12.52
2017-03-17T00:09:48.305Z,12.46
2017-03-17T00:10:28.808Z,12.67
2017-03-17T00:11:09.330Z,12.62
2017-03-17T00:11:49.801Z,12.6
2017-03-17T00:12:30.332Z,12.68
2017-03-17T00:13:10.863Z,12.65
2017-03-17T00:13:51.352Z,12.59
2017-03-17T00:16:05.622Z,12.67
2017-03-17T00:16:46.124Z,12.49
2017-03-17T00:17:26.614Z,12.57
2017-03-17T00:18:07.142Z,12.57
2017-03-17T00:18:47.578Z,12.52
2017-03-17T00:19:28.064Z,12.52
2017-03-17T00:20:08.610Z,12.53
2017-03-17T00:20:49.079Z,12.62
2017-03-17T00:21:29.524Z,12.57
2017-03-17T00:22:10.055Z,12.53
2017-03-17T00:22:50.564Z,12.49
2017-03-17T00:23:31.045Z,12.56
2017-03-17T00:24:11.481Z,12.62
2017-03-17T00:24:51.954Z,12.62
2017-03-17T00:25:32.446Z,12.47
2017-03-17T00:26:12.980Z,12.64
2017-03-17T00:26:53.422Z,12.65
2017-03-17T00:27:33.927Z,12.65
2017-03-17T00:28:14.385Z,12.57
2017-03-17T00:28:54.903Z,12.59
2017-03-17T00:29:35.398Z,12.53
2017-03-17T00:30:15.935Z,12.65
2017-03-17T00:30:56.386Z,12.64
2017-03-17T00:31:36.841Z,12.64
2017-03-17T00:32:17.379Z,12.53
2017-03-17T00:32:57.845Z,12.62
2017-03-17T00:33:38.358Z,12.53
2017-03-17T00:34:18.818Z,12.52
2017-03-17T00:34:59.293Z,12.6
2017-03-17T00:35:39.796Z,12.49
2017-03-17T00:36:20.307Z,12.53
2017-03-17T00:37:00.810Z,12.68
2017-03-17T00:37:41.350Z,12.65
2017-03-17T00:38:21.791Z,12.7
2017-03-17T00:39:02.313Z,12.57
2017-03-17T00:39:42.776Z,12.62
2017-03-17T00:40:23.254Z,12.52
2017-03-17T00:41:03.764Z,12.52
2017-03-17T00:41:44.281Z,12.57
2017-03-17T00:42:24.755Z,12.7
2017-03-17T00:43:05.286Z,12.6
2017-03-17T00:43:45.774Z,12.64
2017-03-17T00:44:26.302Z,12.52
2017-03-17T00:45:06.830Z,12.41
2017-03-17T00:45:47.357Z,12.41
2017-03-17T00:46:27.822Z,12.41
2017-03-17T00:47:08.318Z,12.28
2017-03-17T00:47:48.815Z,12.29
2017-03-17T00:48:29.324Z,12.28
2017-03-17T00:49:09.824Z,12.39
2017-03-17T00:49:50.358Z,12.2
2017-03-17T00:50:30.829Z,12.39
2017-03-17T00:51:11.353Z,12.45
2017-03-17T00:51:51.868Z,12.45
2017-03-17T00:52:32.352Z,12.35
2017-03-17T00:53:12.839Z,12.29
2017-03-17T00:53:53.329Z,12.27
2017-03-17T00:54:33.825Z,12.21
2017-03-17T00:55:14.376Z,12.23
2017-03-17T00:55:54.828Z,12.2
2017-03-17T00:56:35.347Z,12.27
2017-03-17T00:57:15.841Z,12.28
2017-03-17T00:57:56.280Z,12.27
2017-03-17T00:58:36.766Z,12.29
2017-03-17T00:59:17.295Z,12.29
2017-03-17T00:59:57.801Z,12.28
2017-03-17T01:00:38.264Z,12.37
2017-03-17T01:01:18.806Z,12.42
2017-03-17T01:01:59.251Z,12.41
2017-03-17T01:02:39.735Z,12.38
2017-03-17T01:03:20.222Z,12.34
2017-03-17T01:04:00.696Z,12.39
2017-03-17T01:04:41.191Z,12.29
2017-03-17T01:05:21.695Z,12.28
2017-03-17T01:06:02.224Z,12.28
2017-03-17T01:06:42.683Z,12.1
2017-03-17T01:07:23.171Z,12.21
2017-03-17T01:08:03.633Z,12.29
2017-03-17T01:08:44.131Z,12.28
2017-03-17T01:09:24.645Z,12.37
2017-03-17T01:10:05.153Z,12.32
2017-03-17T01:10:45.638Z,12.17
2017-03-17T01:11:26.175Z,12.17
2017-03-17T01:12:06.620Z,12.07
2017-03-17T01:12:47.130Z,12.31
2017-03-17T01:13:27.659Z,12.28
2017-03-17T01:14:08.140Z,12.35
2017-03-17T01:14:48.605Z,12.24
2017-03-17T01:15:29.093Z,12.34
2017-03-17T01:16:09.609Z,12.38
2017-03-17T01:16:50.102Z,12.24
2017-03-17T01:17:30.636Z,12.28
2017-03-17T01:18:11.061Z,12.24
2017-03-17T01:18:51.543Z,12.27
2017-03-17T01:19:32.073Z,12.21
2017-03-17T01:20:12.577Z,12.28
2017-03-17T01:20:53.075Z,12.24
2017-03-17T01:21:33.570Z,12.27
2017-03-17T01:22:14.059Z,12.23
2017-03-17T01:22:54.584Z,12.35
2017-03-17T01:23:35.077Z,12.35
2017-03-17T01:24:15.570Z,12.38
2017-03-17T01:24:56.074Z,12.32
2017-03-17T01:25:36.579Z,12.27
2017-03-17T01:26:17.073Z,12.27
2017-03-17T01:26:57.557Z,12.39
2017-03-17T01:27:38.080Z,12.32
2017-03-17T01:28:18.533Z,12.23
2017-03-17T01:28:59.019Z,12.12
2017-03-17T01:29:39.509Z,12.28
2017-03-17T01:30:20.008Z,12.12
2017-03-17T01:31:00.512Z,12.14
2017-03-17T01:31:41.040Z,12.24
2017-03-17T01:32:21.506Z,12.17
2017-03-17T01:33:01.965Z,12.14
2017-03-17T01:33:42.464Z,12.16
2017-03-17T01:34:22.976Z,12.17
2017-03-17T01:35:03.448Z,12.12
2017-03-17T01:35:43.976Z,12.05
2017-03-17T01:36:24.439Z,12.04
2017-03-17T01:37:04.952Z,12.1
2017-03-17T01:37:45.429Z,12.1
2017-03-17T01:38:25.955Z,12.19
2017-03-17T01:39:06.430Z,12.09
2017-03-17T01:39:46.939Z,12.07
2017-03-17T01:40:27.461Z,12.05
2017-03-17T01:41:07.981Z,12.13
2017-03-17T01:41:48.409Z,12.14
2017-03-17T01:42:28.887Z,12.12
2017-03-17T01:43:09.392Z,12.14
2017-03-17T01:43:49.867Z,12.1
2017-03-17T01:44:30.357Z,12.07
2017-03-17T01:45:10.848Z,12.04
2017-03-17T01:45:51.341Z,12.14
2017-03-17T01:46:31.864Z,12.16
2017-03-17T01:47:12.333Z,12.21
2017-03-17T01:47:52.885Z,12.29
2017-03-17T01:48:33.355Z,12.23
2017-03-17T01:49:13.850Z,12.31
2017-03-17T01:49:54.360Z,12.24
2017-03-17T01:50:34.827Z,12.24
2017-03-17T01:51:15.341Z,12.28
2017-03-17T01:51:55.797Z,12.28
2017-03-17T01:52:36.305Z,12.19
2017-03-17T01:53:16.813Z,12.17
2017-03-17T01:53:57.347Z,12.21
2017-03-17T01:54:37.852Z,12.13
2017-03-17T01:55:18.369Z,12.09
2017-03-17T01:55:58.807Z,12.04
2017-03-17T01:56:39.267Z,12.12
2017-03-17T01:57:19.794Z,12.07
2017-03-17T01:58:00.270Z,12.14
2017-03-17T01:58:40.735Z,11.98
2017-03-17T01:59:21.250Z,12.04
2017-03-17T02:00:01.724Z,12.04
2017-03-17T02:00:42.210Z,12.05
2017-03-17T02:01:22.734Z,12.02
2017-03-17T02:02:03.174Z,11.96
2017-03-17T02:02:43.701Z,11.82
2017-03-17T02:03:24.218Z,11.9
2017-03-17T02:04:04.702Z,11.79
2017-03-17T02:04:45.223Z,11.91
2017-03-17T02:05:25.709Z,11.98
2017-03-17T02:06:06.204Z,11.96
2017-03-17T02:06:46.672Z,11.98
2017-03-17T02:07:27.155Z,11.96
2017-03-17T02:08:07.697Z,11.99
2017-03-17T02:08:48.147Z,11.98
2017-03-17T02:09:28.618Z,11.95
2017-03-17T02:10:09.147Z,11.95
2017-03-17T02:10:49.605Z,12.01
2017-03-17T02:11:30.121Z,11.88
2017-03-17T02:12:10.544Z,11.94
2017-03-17T02:12:51.067Z,11.98
2017-03-17T02:13:31.504Z,11.94
2017-03-17T02:14:11.978Z,11.9
2017-03-17T02:14:52.530Z,11.78
2017-03-17T02:15:32.964Z,11.8
2017-03-17T02:16:13.421Z,11.86
2017-03-17T02:16:53.925Z,11.94
2017-03-17T02:17:34.445Z,11.83
2017-03-17T02:18:14.872Z,11.73
2017-03-17T02:18:55.367Z,11.75
2017-03-17T02:19:35.843Z,11.83
2017-03-17T02:20:16.351Z,11.78
2017-03-17T02:20:56.848Z,11.73
2017-03-17T02:21:37.391Z,11.76
2017-03-17T02:22:17.877Z,11.82
2017-03-17T02:22:58.390Z,11.76
2017-03-17T02:23:38.869Z,11.65
2017-03-17T02:24:19.347Z,11.7
2017-03-17T02:24:59.861Z,11.7
2017-03-17T02:25:40.388Z,11.65
2017-03-17T02:26:20.884Z,11.62
2017-03-17T02:27:01.393Z,11.76
2017-03-17T02:27:41.894Z,11.73
2017-03-17T02:28:22.400Z,11.73
2017-03-17T02:29:02.901Z,11.82
2017-03-17T02:29:43.415Z,11.62
2017-03-17T02:30:23.869Z,11.79
2017-03-17T02:31:04.392Z,11.82
2017-03-17T02:31:44.887Z,11.79
2017-03-17T02:32:25.383Z,11.79
2017-03-17T02:33:05.888Z,11.75
2017-03-17T02:33:46.349Z,11.72
2017-03-17T02:34:26.894Z,11.78
2017-03-17T02:35:07.341Z,11.69
2017-03-17T02:35:47.883Z,11.7
2017-03-17T02:36:28.310Z,11.65
2017-03-17T02:37:08.807Z,11.78
2017-03-17T02:37:49.291Z,11.78
2017-03-17T02:38:29.839Z,11.69
2017-03-17T02:39:10.283Z,11.69
2017-03-17T02:39:50.786Z,11.75
2017-03-17T02:40:31.305Z,11.73
2017-03-17T02:41:11.769Z,11.7
2017-03-17T02:41:52.277Z,11.65
2017-03-17T02:42:32.757Z,11.82
2017-03-17T02:43:13.290Z,11.79
2017-03-17T02:43:53.758Z,11.69
2017-03-17T02:44:34.240Z,11.6
2017-03-17T02:45:14.757Z,11.61
2017-03-17T02:45:55.234Z,11.67
2017-03-17T02:46:35.725Z,11.65
2017-03-17T02:47:16.211Z,11.61
2017-03-17T02:47:56.708Z,11.67
2017-03-17T02:48:37.198Z,11.69
2017-03-17T02:49:17.723Z,11.75
2017-03-17T02:49:58.204Z,11.69
2017-03-17T02:50:38.733Z,11.65
2017-03-17T02:51:19.208Z,11.64
2017-03-17T02:51:59.676Z,11.73
2017-03-17T02:52:40.197Z,11.65
2017-03-17T02:53:20.689Z,11.69
2017-03-17T02:54:01.231Z,11.69
2017-03-17T02:54:41.678Z,11.7
2017-03-17T02:55:22.181Z,11.72
2017-03-17T02:56:02.666Z,11.64
2017-03-17T02:56:43.161Z,11.61
2017-03-17T02:57:23.673Z,11.58
2017-03-17T02:58:04.151Z,11.54
2017-03-17T02:58:44.653Z,11.64
2017-03-17T02:59:25.104Z,11.55
2017-03-17T03:00:05.618Z,11.47
2017-03-17T03:00:46.117Z,11.57
2017-03-17T03:01:26.601Z,11.54
2017-03-17T03:02:07.076Z,11.42
2017-03-17T03:02:47.589Z,11.54
2017-03-17T03:03:28.095Z,11.55
2017-03-17T03:04:08.568Z,11.52
2017-03-17T03:04:49.102Z,11.49
2017-03-17T03:05:29.534Z,11.49
2017-03-17T03:06:10.045Z,11.47
2017-03-17T03:06:50.591Z,11.52
2017-03-17T03:07:31.053Z,11.46
2017-03-17T03:08:11.519Z,11.54
2017-03-17T03:08:51.998Z,11.51
2017-03-17T03:09:32.504Z,11.44
2017-03-17T03:10:12.965Z,11.55
2017-03-17T03:10:53.461Z,11.52
2017-03-17T03:11:33.919Z,11.43
2017-03-17T03:12:14.462Z,11.44
2017-03-17T03:12:54.943Z,11.35
2017-03-17T03:13:35.423Z,11.33
2017-03-17T03:14:15.908Z,11.32
2017-03-17T03:14:56.394Z,11.29
2017-03-17T03:15:36.895Z,11.35
2017-03-17T03:16:17.389Z,11.39
2017-03-17T03:16:57.866Z,11.36
2017-03-17T03:17:38.375Z,11.43
2017-03-17T03:18:18.874Z,11.51
2017-03-17T03:18:59.370Z,11.49
2017-03-17T03:19:39.826Z,11.55
2017-03-17T03:20:20.322Z,11.55
2017-03-17T03:21:00.804Z,11.46
2017-03-17T03:21:41.279Z,11.47
2017-03-17T03:22:21.816Z,11.54
2017-03-17T03:23:02.310Z,11.46
2017-03-17T03:23:42.809Z,11.43
2017-03-17T03:24:23.286Z,11.44
2017-03-17T03:25:03.786Z,11.46
2017-03-17T03:25:44.293Z,11.47
2017-03-17T03:26:24.807Z,11.57
2017-03-17T03:27:05.322Z,11.54
2017-03-17T03:27:45.814Z,11.29
2017-03-17T03:28:26.272Z,11.25
2017-03-17T03:29:06.735Z,11.36
2017-03-17T03:29:47.234Z,11.4
2017-03-17T03:30:27.710Z,11.46
2017-03-17T03:31:08.212Z,11.35
2017-03-17T03:31:48.701Z,11.36
2017-03-17T03:32:29.181Z,11.37
2017-03-17T03:33:09.642Z,11.29
2017-03-17T03:33:50.171Z,11.24
2017-03-17T03:34:30.662Z,11.15
2017-03-17T03:35:11.110Z,11.22
2017-03-17T03:35:51.579Z,11.24
2017-03-17T03:36:32.079Z,11.39
2017-03-17T03:37:12.569Z,11.42
2017-03-17T03:37:53.053Z,11.39
2017-03-17T03:38:33.539Z,11.39
2017-03-17T03:39:14.044Z,11.44
2017-03-17T03:39:54.547Z,11.42
2017-03-17T03:40:35.017Z,11.39
2017-03-17T03:41:15.548Z,11.4
2017-03-17T03:41:56.006Z,11.4
2017-03-17T03:42:36.516Z,11.51
2017-03-17T03:43:17.038Z,11.51
2017-03-17T03:43:57.531Z,11.39
2017-03-17T03:44:38.046Z,11.39
2017-03-17T03:45:18.491Z,11.46
2017-03-17T03:45:58.996Z,11.46
2017-03-17T03:46:39.470Z,11.47
2017-03-17T03:47:19.981Z,11.39
2017-03-17T03:48:00.460Z,11.46
2017-03-17T03:48:40.932Z,11.52
2017-03-17T03:49:21.467Z,11.42
2017-03-17T03:50:01.966Z,11.43
2017-03-17T03:50:42.492Z,11.51
2017-03-17T03:51:22.983Z,11.4
2017-03-17T03:52:03.459Z,11.39
2017-03-17T03:52:43.989Z,11.32
2017-03-17T03:53:24.479Z,11.29
2017-03-17T03:54:04.947Z,11.37
2017-03-17T03:54:45.451Z,11.54
2017-03-17T03:55:25.939Z,11.33
2017-03-17T03:56:06.439Z,11.27
2017-03-17T03:56:46.924Z,11.25
2017-03-17T03:57:27.399Z,11.32
2017-03-17T03:58:07.858Z,11.33
2017-03-17T03:58:48.361Z,11.37
2017-03-17T03:59:28.866Z,11.37
2017-03-17T04:00:09.347Z,11.37
2017-03-17T04:00:49.798Z,11.35
2017-03-17T04:01:30.316Z,11.52
2017-03-17T04:02:10.778Z,11.44
2017-03-17T04:02:51.270Z,11.42
2017-03-17T04:03:31.763Z,11.51
2017-03-17T04:04:12.235Z,11.43
2017-03-17T04:04:52.703Z,11.28
2017-03-17T04:05:33.238Z,11.36
2017-03-17T04:06:13.743Z,11.42
2017-03-17T04:06:54.255Z,11.33
2017-03-17T04:07:34.726Z,11.28
2017-03-17T04:08:15.239Z,11.35
2017-03-17T04:08:55.788Z,11.36
2017-03-17T04:09:36.247Z,11.42
2017-03-17T04:10:16.719Z,11.52
2017-03-17T04:10:57.249Z,11.55
2017-03-17T04:11:37.684Z,11.39
2017-03-17T04:12:18.216Z,11.46
2017-03-17T04:12:58.727Z,11.36
2017-03-17T04:13:39.202Z,11.43
2017-03-17T04:14:19.699Z,11.47
2017-03-17T04:15:00.188Z,11.54
2017-03-17T04:15:40.681Z,11.51
2017-03-17T04:16:21.190Z,11.54
2017-03-17T04:17:01.641Z,11.55
2017-03-17T04:17:42.162Z,11.42
2017-03-17T04:18:22.678Z,11.46
2017-03-17T04:19:03.118Z,11.52
2017-03-17T04:19:43.671Z,11.47
2017-03-17T04:20:24.127Z,11.42
2017-03-17T04:21:04.616Z,11.44
2017-03-17T04:21:45.101Z,11.4
2017-03-17T04:22:25.618Z,11.39
2017-03-17T04:23:06.132Z,11.35
2017-03-17T04:23:46.611Z,11.29
2017-03-17T04:24:27.075Z,11.27
2017-03-17T04:25:07.575Z,11.27
2017-03-17T04:25:48.079Z,11.19
2017-03-17T04:26:28.565Z,11.15
2017-03-17T04:27:09.078Z,11.22
2017-03-17T04:27:49.598Z,11.29
2017-03-17T04:28:30.119Z,11.18
2017-03-17T04:29:10.584Z,11.1
2017-03-17T04:29:51.027Z,11.17
2017-03-17T04:30:31.540Z,10.99
2017-03-17T04:31:12.076Z,10.99
2017-03-17T04:31:52.524Z,11.07
2017-03-17T04:32:33.023Z,11.17
2017-03-17T04:33:13.526Z,11.14
2017-03-17T04:33:53.952Z,11.14
2017-03-17T04:34:34.477Z,11.18
2017-03-17T04:35:15.023Z,11.22
2017-03-17T04:35:55.469Z,11.17
2017-03-17T04:36:35.969Z,11.21
2017-03-17T04:37:16.459Z,11.22
2017-03-17T04:37:56.984Z,11.35
2017-03-17T04:38:37.485Z,11.29
2017-03-17T04:39:17.993Z,11.33
2017-03-17T04:39:58.512Z,11.35
2017-03-17T04:40:38.998Z,11.32
2017-03-17T04:41:19.480Z,11.35
2017-03-17T04:42:00.016Z,11.43
2017-03-17T04:42:40.488Z,11.27
2017-03-17T04:43:20.985Z,11.33
2017-03-17T04:44:01.566Z,11.36
2017-03-17T04:44:41.940Z,11.37
2017-03-17T04:45:22.435Z,11.25
2017-03-17T04:46:03.003Z,11.4
2017-03-17T04:46:43.497Z,11.19
2017-03-17T04:47:24.119Z,11.18
2017-03-17T04:48:04.596Z,11.22
2017-03-17T04:48:45.112Z,11.18
2017-03-17T04:49:25.616Z,11.09
2017-03-17T04:50:06.102Z,11.17
2017-03-17T04:50:46.606Z,11.14
2017-03-17T04:51:27.124Z,11.14
2017-03-17T04:52:07.630Z,11.14
2017-03-17T04:52:48.173Z,10.91
2017-03-17T04:53:28.617Z,10.96
2017-03-17T04:54:09.102Z,10.84
2017-03-17T04:54:49.621Z,10.84
2017-03-17T04:55:30.132Z,10.88
2017-03-17T04:56:10.622Z,10.84
2017-03-17T04:56:51.117Z,10.78
2017-03-17T04:57:31.630Z,10.78
2017-03-17T04:58:12.110Z,10.76
2017-03-17T04:58:52.598Z,10.71
2017-03-17T04:59:33.128Z,10.76
2017-03-17T05:00:13.586Z,10.7
2017-03-17T05:00:54.075Z,10.51
2017-03-17T05:01:34.592Z,10.52
2017-03-17T05:02:15.109Z,10.52
2017-03-17T05:02:55.608Z,10.44
2017-03-17T05:03:36.083Z,10.4
2017-03-17T05:04:16.595Z,10.36
2017-03-17T05:04:57.075Z,10.34
2017-03-17T05:05:37.583Z,10.42
2017-03-17T05:06:18.080Z,10.4
2017-03-17T05:06:58.574Z,10.38
2017-03-17T05:07:39.091Z,10.53
2017-03-17T05:08:19.579Z,10.52
2017-03-17T05:09:00.050Z,10.52
2017-03-17T05:09:40.592Z,10.56
2017-03-17T05:10:21.042Z,10.4
2017-03-17T05:11:01.556Z,10.22
2017-03-17T05:11:42.038Z,10.27
2017-03-17T05:12:22.525Z,10.15
2017-03-17T05:13:03.042Z,10.27
2017-03-17T05:13:43.519Z,10.26
2017-03-17T05:14:24.026Z,10.36
2017-03-17T05:15:04.557Z,10.34
2017-03-17T05:15:45.043Z,10.41
2017-03-17T05:16:25.535Z,10.32
2017-03-17T05:17:06.042Z,10.38
2017-03-17T05:17:46.574Z,10.3
2017-03-17T05:18:27.093Z,10.34
2017-03-17T05:19:07.587Z,10.36
2017-03-17T05:19:48.080Z,10.41
2017-03-17T05:20:28.562Z,10.42
2017-03-17T05:21:09.089Z,10.36
2017-03-17T05:21:49.562Z,10.32
2017-03-17T05:22:30.032Z,10.3
2017-03-17T05:23:10.549Z,10.38
2017-03-17T05:23:51.040Z,10.4
2017-03-17T05:24:31.504Z,10.44
2017-03-17T05:25:12.005Z,10.45
2017-03-17T05:25:52.471Z,10.38
2017-03-17T05:26:32.960Z,10.3
2017-03-17T05:27:13.469Z,10.23
2017-03-17T05:27:53.971Z,10.11
2017-03-17T05:28:34.467Z,10.15
2017-03-17T05:29:14.972Z,10.18
2017-03-17T05:29:55.485Z,10.18
2017-03-17T05:30:36.001Z,10.15
2017-03-17T05:31:16.463Z,10.07
2017-03-17T05:31:56.951Z,10.18
2017-03-17T05:32:37.497Z,10.15
2017-03-17T05:33:17.947Z,10.15
2017-03-17T05:33:58.450Z,10.08
2017-03-17T05:34:38.909Z,10.17
2017-03-17T05:35:19.418Z,10.04
2017-03-17T05:35:59.919Z,10.2
2017-03-17T05:36:40.429Z,10.2
2017-03-17T05:37:20.850Z,10.3
2017-03-17T05:38:01.400Z,10.23
2017-03-17T05:38:41.889Z,10.26
2017-03-17T05:39:22.394Z,10.2
2017-03-17T05:40:02.883Z,10.05
2017-03-17T05:40:43.368Z,10.22
2017-03-17T05:41:23.892Z,10.05
2017-03-17T05:42:04.431Z,10.08
2017-03-17T05:42:44.944Z,10.11
2017-03-17T05:43:25.448Z,10.08
2017-03-17T05:44:05.947Z,10.23
2017-03-17T05:44:46.486Z,10.18
2017-03-17T05:45:26.984Z,10.15
2017-03-17T05:46:07.492Z,10.2
2017-03-17T05:46:47.998Z,10.18
2017-03-17T05:47:28.480Z,10.17
2017-03-17T05:48:08.989Z,10.27
2017-03-17T05:48:49.488Z,10.3
2017-03-17T05:49:29.985Z,10.27
2017-03-17T05:50:10.517Z,10.33
2017-03-17T05:50:50.986Z,10.55
2017-03-17T05:51:31.476Z,10.52
2017-03-17T05:52:11.954Z,10.42
2017-03-17T05:52:52.459Z,10.44
2017-03-17T05:53:32.947Z,10.55
2017-03-17T05:54:13.451Z,10.59
2017-03-17T05:54:53.916Z,10.51
2017-03-17T05:55:34.421Z,10.55
2017-03-17T05:56:14.943Z,10.44
2017-03-17T05:56:55.460Z,10.4
2017-03-17T05:57:35.972Z,10.42
2017-03-17T05:58:16.483Z,10.53
2017-03-17T05:58:56.955Z,10.52
2017-03-17T05:59:37.463Z,10.52
2017-03-17T06:00:17.935Z,10.56
2017-03-17T06:00:58.437Z,10.53
2017-03-17T06:01:38.895Z,10.47
2017-03-17T06:02:19.388Z,10.64
2017-03-17T06:02:59.883Z,10.52
2017-03-17T06:03:40.359Z,10.59
2017-03-17T06:04:20.852Z,10.68
2017-03-17T06:05:01.362Z,10.68
2017-03-17T06:05:41.852Z,10.61
2017-03-17T06:06:22.381Z,10.68
2017-03-17T06:07:02.888Z,10.59
2017-03-17T06:07:43.409Z,10.76
2017-03-17T06:08:23.908Z,10.78
2017-03-17T06:09:04.401Z,10.66
2017-03-17T06:09:44.907Z,10.61
2017-03-17T06:10:25.373Z,10.76
2017-03-17T06:11:05.856Z,10.71
2017-03-17T06:11:46.355Z,10.63
2017-03-17T06:12:26.885Z,10.7
2017-03-17T06:13:07.399Z,10.59
2017-03-17T06:13:47.897Z,10.63
2017-03-17T06:14:28.391Z,10.61
2017-03-17T06:15:08.872Z,10.59
2017-03-17T06:15:49.376Z,10.61
2017-03-17T06:16:29.875Z,10.68
2017-03-17T06:17:10.478Z,10.82
2017-03-17T06:17:51.007Z,10.82
2017-03-17T06:18:31.859Z,10.81
2017-03-17T06:19:12.335Z,10.89
2017-03-17T06:19:52.857Z,10.84
2017-03-17T06:20:33.338Z,10.88
2017-03-17T06:21:13.826Z,10.84
2017-03-17T06:21:54.312Z,10.84
2017-03-17T06:22:34.823Z,10.81
2017-03-17T06:23:15.304Z,10.84
2017-03-17T06:23:55.828Z,10.92
2017-03-17T06:24:36.266Z,10.97
2017-03-17T06:25:16.779Z,10.89
2017-03-17T06:25:57.291Z,10.91
2017-03-17T06:26:37.807Z,10.89
2017-03-17T06:27:18.329Z,10.91
2017-03-17T06:27:58.836Z,10.89
2017-03-17T06:28:39.322Z,10.88
2017-03-17T06:29:19.813Z,10.96
2017-03-17T06:30:00.289Z,11
2017-03-17T06:30:40.782Z,11.1
2017-03-17T06:31:21.327Z,11.11
2017-03-17T06:32:01.841Z,11.18
2017-03-17T06:32:42.297Z,11.15
2017-03-17T06:33:22.769Z,11.14
2017-03-17T06:34:03.408Z,11.25
2017-03-17T06:34:43.890Z,11.39
2017-03-17T06:35:24.413Z,11.4
2017-03-17T06:36:04.981Z,11.33
2017-03-17T06:36:45.434Z,11.25
2017-03-17T06:37:25.921Z,11.32
2017-03-17T06:38:06.446Z,11.57
2017-03-17T06:38:46.921Z,11.76
2017-03-17T06:39:27.439Z,11.75
2017-03-17T06:40:07.957Z,11.76
2017-03-17T06:40:48.584Z,11.69
2017-03-17T06:41:29.001Z,11.75
2017-03-17T06:42:09.477Z,11.62
2017-03-17T06:42:50.065Z,11.58
2017-03-17T06:43:30.522Z,11.55
2017-03-17T06:44:11.793Z,11.46
2017-03-17T06:44:52.308Z,11.64
2017-03-17T06:45:32.753Z,11.52
2017-03-17T06:46:13.270Z,11.54
2017-03-17T06:46:53.813Z,11.69
2017-03-17T06:47:34.300Z,11.61
2017-03-17T06:48:15.269Z,11.64
2017-03-17T06:48:55.729Z,11.67
2017-03-17T06:49:36.223Z,11.75
2017-03-17T06:50:16.745Z,11.73
2017-03-17T06:50:57.195Z,11.62
2017-03-17T06:51:37.706Z,11.64
2017-03-17T06:52:18.190Z,11.72
2017-03-17T06:52:58.655Z,11.67
2017-03-17T06:53:39.211Z,11.64
2017-03-17T06:54:19.670Z,11.58
2017-03-17T06:55:00.186Z,11.65
2017-03-17T06:55:40.673Z,11.67
2017-03-17T06:56:21.170Z,11.49
2017-03-17T06:57:01.647Z,11.58
2017-03-17T06:57:42.142Z,11.61
2017-03-17T06:58:22.723Z,11.76
2017-03-17T06:59:03.256Z,11.79
2017-03-17T06:59:43.750Z,11.82
2017-03-17T07:00:24.266Z,11.76
2017-03-17T07:01:04.820Z,11.73
2017-03-17T07:01:45.290Z,11.85
2017-03-17T07:02:25.759Z,11.94
2017-03-17T07:03:06.262Z,12.02
2017-03-17T07:03:46.737Z,12.27
2017-03-17T07:04:27.274Z,12.37
2017-03-17T07:05:07.756Z,12.85
2017-03-17T07:05:48.246Z,12.96
2017-03-17T07:06:28.735Z,12.72
2017-03-17T07:07:09.249Z,12.71
2017-03-17T07:07:49.742Z,12.74
2017-03-17T07:08:30.260Z,12.67
2017-03-17T07:09:10.765Z,12.65
2017-03-17T07:09:51.231Z,12.67
2017-03-17T07:10:31.761Z,12.71
2017-03-17T07:11:12.228Z,12.68
2017-03-17T07:11:52.716Z,12.77
2017-03-17T07:12:33.255Z,12.9
2017-03-17T07:13:13.713Z,12.83
2017-03-17T07:13:54.206Z,12.75
2017-03-17T07:14:34.737Z,12.82
2017-03-17T07:15:15.201Z,12.79
2017-03-17T07:15:55.719Z,13
2017-03-17T07:16:36.218Z,13.12
2017-03-17T07:17:16.901Z,13
2017-03-17T07:17:57.416Z,13.12
2017-03-17T07:18:39.041Z,13.23
2017-03-17T07:19:20.040Z,13.23
2017-03-17T07:19:59.933Z,13.19
2017-03-17T07:20:43.108Z,13.6
2017-03-17T07:21:23.441Z,13.52
2017-03-17T07:22:03.938Z,13.32
2017-03-17T07:22:44.437Z,13.26
2017-03-17T07:23:25.240Z,13.19
2017-03-17T07:24:05.693Z,13.29
2017-03-17T07:24:46.202Z,13.29
2017-03-17T07:25:27.987Z,13.38
2017-03-17T07:26:08.562Z,13.28
2017-03-17T07:26:49.026Z,13.45
2017-03-17T07:27:29.532Z,13.7
2017-03-17T07:28:10.011Z,13.82
2017-03-17T07:28:50.482Z,13.92
2017-03-17T07:29:31.002Z,14.03
2017-03-17T07:31:21.231Z,14.15
2017-03-17T07:32:01.353Z,14.35
2017-03-17T07:32:41.993Z,14.29
2017-03-17T07:33:24.199Z,14.36
2017-03-17T07:34:04.729Z,14.42
2017-03-17T07:34:45.168Z,14.39
2017-03-17T07:35:25.665Z,14.43
2017-03-17T07:36:06.166Z,14.61
2017-03-17T07:36:46.679Z,14.51
2017-03-17T07:37:27.148Z,14.51
2017-03-17T07:38:07.657Z,14.42
2017-03-17T07:38:48.161Z,14.47
2017-03-17T07:39:28.641Z,14.51
2017-03-17T07:40:09.158Z,14.5
2017-03-17T07:40:49.634Z,14.64
2017-03-17T07:41:30.136Z,14.47
2017-03-17T07:42:10.654Z,14.58
2017-03-17T07:42:51.115Z,14.72
2017-03-17T07:43:33.553Z,14.7
2017-03-17T07:44:14.041Z,14.64
2017-03-17T07:44:54.529Z,14.77
2017-03-17T07:45:35.045Z,14.84
2017-03-17T07:46:15.540Z,14.91
2017-03-17T07:46:56.035Z,15.02
2017-03-17T07:47:36.513Z,14.81
2017-03-17T07:48:17.002Z,14.83
2017-03-17T07:48:57.490Z,14.94
2017-03-17T07:49:38.061Z,15.02
2017-03-17T07:50:18.533Z,14.91
2017-03-17T07:50:59.062Z,14.88
2017-03-17T07:51:39.645Z,14.98
2017-03-17T07:52:20.132Z,15.02
2017-03-17T07:53:00.645Z,15.03
2017-03-17T07:53:41.230Z,14.99
2017-03-17T07:54:21.734Z,15.02
2017-03-17T07:55:02.387Z,15.01
2017-03-17T07:55:42.835Z,15.1
2017-03-17T07:56:23.303Z,15.19
2017-03-17T07:57:03.868Z,15.21
2017-03-17T07:57:44.376Z,15.19
2017-03-17T07:58:24.894Z,15.23
2017-03-17T07:59:05.372Z,15.25
2017-03-17T07:59:45.867Z,15.2
2017-03-17T08:00:26.338Z,15.44
2017-03-17T08:01:06.883Z,15.39
2017-03-17T08:01:47.393Z,15.36
2017-03-17T08:02:27.947Z,15.28
2017-03-17T08:03:08.465Z,15.41
2017-03-17T08:03:48.936Z,15.39
2017-03-17T08:04:29.423Z,15.35
2017-03-17T08:05:09.989Z,15.59
2017-03-17T08:05:50.492Z,15.8
2017-03-17T08:06:31.038Z,16.02
2017-03-17T08:07:11.552Z,16.05
2017-03-17T08:07:53.078Z,16.05
2017-03-17T08:08:33.585Z,16.17
2017-03-17T08:09:14.080Z,16.17
2017-03-17T08:09:54.589Z,16.21
2017-03-17T08:10:35.131Z,16.17
2017-03-17T08:11:15.608Z,16.09
2017-03-17T08:11:56.112Z,16.04
2017-03-17T08:12:36.675Z,16.09
2017-03-17T08:13:17.124Z,16.07
2017-03-17T08:13:57.713Z,16.09
2017-03-17T08:14:38.169Z,16.09
2017-03-17T08:15:18.803Z,15.93
2017-03-17T08:15:59.352Z,16.05
2017-03-17T08:16:39.876Z,16.04
2017-03-17T08:17:20.404Z,16.09
2017-03-17T08:18:00.974Z,16.08
2017-03-17T08:18:41.398Z,16.14
2017-03-17T08:19:21.893Z,16.12
2017-03-17T08:20:02.459Z,16.21
2017-03-17T08:20:42.946Z,16.25
2017-03-17T08:21:23.468Z,16.28
2017-03-17T08:22:03.929Z,16.43
2017-03-17T08:22:44.431Z,16.39
2017-03-17T08:23:25.006Z,16.42
2017-03-17T08:24:05.479Z,16.48
2017-03-17T08:24:45.973Z,16.48
2017-03-17T08:25:26.499Z,16.5
2017-03-17T08:26:06.978Z,16.48
2017-03-17T08:26:47.460Z,16.6
2017-03-17T08:27:27.953Z,16.63
2017-03-17T08:28:08.453Z,16.6
2017-03-17T08:28:48.926Z,16.53
2017-03-17T08:29:29.417Z,16.35
2017-03-17T08:30:09.935Z,16.25
2017-03-17T08:30:50.420Z,16.34
2017-03-17T08:31:30.944Z,16.42
2017-03-17T08:32:11.436Z,16.56
2017-03-17T08:32:51.958Z,16.6
2017-03-17T08:33:32.494Z,16.68
2017-03-17T08:34:12.973Z,16.68
2017-03-17T08:34:53.473Z,16.52
2017-03-17T08:35:34.004Z,16.68
2017-03-17T08:36:14.509Z,16.76
2017-03-17T08:36:55.033Z,16.82
2017-03-17T08:37:35.529Z,16.81
2017-03-17T08:38:16.004Z,16.91
2017-03-17T08:38:56.547Z,16.96
2017-03-17T08:39:37.009Z,16.94
2017-03-17T08:40:17.478Z,17
2017-03-17T08:40:57.981Z,16.89
2017-03-17T08:41:38.515Z,16.91
2017-03-17T08:42:19.064Z,16.89
2017-03-17T08:42:59.587Z,16.75
2017-03-17T08:43:40.113Z,16.81
2017-03-17T08:44:20.573Z,16.82
2017-03-17T08:45:01.130Z,16.82
2017-03-17T08:45:41.578Z,16.82